Time;durP1;ratioP1;P1;durP2;ratioP2;P2;SDS_P1;SDS_P2;PMS_P1;PMS_P2;Temp;Humidity;BMP_temperature;BMP_pressure;BME280_temperature;BME280_humidity;BME280_pressure;Samples;Min_cycle;Max_cycle;Signal;HPM_P1;HPM_P2
2022/03/25 00:16:24;;;;;;;43.30;21.92;;;10.10;99.90;;;;;;4666471;30;20053;-89
2022/03/25 00:19:20;;;;;;;44.40;23.35;;;10.00;99.90;;;;;;4665664;30;20070;-90
2022/03/25 00:39:22;;;;;;;39.92;20.90;;;9.90;99.90;;;;;;4663416;30;20051;-89
2022/03/25 00:41:58;;;;;;;41.67;21.98;;;9.80;99.90;;;;;;4665488;30;20101;-90
2022/03/25 00:48:55;;;;;;;42.33;22.58;;;9.80;99.90;;;;;;4651835;30;20053;-90
2022/03/25 00:52:22;;;;;;;50.17;24.20;;;9.70;99.90;;;;;;4991761;24;20136;-89
2022/03/25 00:55:44;;;;;;;45.85;21.65;;;9.70;99.90;;;;;;4730733;30;20063;-89
2022/03/25 00:59:03;;;;;;;43.55;22.27;;;9.70;99.90;;;;;;4720873;30;20515;-90
2022/03/25 01:11:36;;;;;;;39.10;20.95;;;9.60;99.90;;;;;;4782818;24;20051;-90
2022/03/25 01:15:13;;;;;;;41.45;20.88;;;9.50;99.90;;;;;;4760614;30;20056;-89
2022/03/25 01:22:42;;;;;;;43.38;21.58;;;9.50;99.90;;;;;;4753299;30;20132;-90
2022/03/25 01:33:25;;;;;;;58.05;25.08;;;9.30;99.90;;;;;;4792318;24;20048;-89
2022/03/25 01:36:37;;;;;;;;;;;;;;;;;;;;;
2022/03/25 02:06:48;;;;;;;42.88;22.08;;;9.20;99.90;;;;;;4629830;30;20062;-89
2022/03/25 02:23:07;;;;;;;47.47;21.50;;;9.00;99.90;;;;;;4659618;30;20135;-89
2022/03/25 02:35:29;;;;;;;;;;;;;;;;;;;;;
2022/03/25 02:57:36;;;;;;;;;;;;;;;;;;;;;
2022/03/25 03:05:01;;;;;;;51.08;23.25;;;8.80;99.90;;;;;;4712409;30;20467;-89
2022/03/25 03:07:45;;;;;;;54.50;26.52;;;8.70;99.90;;;;;;4719926;30;20057;-89
2022/03/25 03:14:29;;;;;;;50.92;23.45;;;8.70;99.90;;;;;;4698009;30;20041;-89
2022/03/25 03:18:26;;;;;;;45.05;23.50;;;8.60;99.90;;;;;;4687454;30;20084;-90
2022/03/25 03:21:57;;;;;;;55.83;25.30;;;8.60;99.90;;;;;;4722805;24;20118;-90
2022/03/25 03:25:13;;;;;;;;;;;;;;;;;;;;;
2022/03/25 03:28:09;;;;;;;56.42;24.70;;;8.60;99.90;;;;;;4736607;30;20149;-89
2022/03/25 03:30:43;;;;;;;48.90;22.77;;;8.60;99.90;;;;;;4736682;30;20123;-89
2022/03/25 03:34:13;;;;;;;52.72;26.52;;;8.50;99.90;;;;;;4722655;30;20128;-89
2022/03/25 03:38:13;;;;;;;;;;;;;;;;;;;;;
2022/03/25 03:41:32;;;;;;;48.78;25.45;;;8.50;99.90;;;;;;4737371;30;20116;-89
2022/03/25 03:44:56;;;;;;;52.92;22.45;;;8.50;99.90;;;;;;4728125;30;20033;-89
2022/03/25 03:49:22;;;;;;;;;;;;;;;;;;;;;
2022/03/25 04:02:06;;;;;;;52.67;25.05;;;8.40;99.90;;;;;;4698593;30;20056;-89
2022/03/25 04:05:10;;;;;;;52.63;25.42;;;8.30;99.90;;;;;;4700342;30;20049;-89
2022/03/25 04:08:45;;;;;;;56.67;25.65;;;8.30;99.90;;;;;;4691335;30;20071;-89
2022/03/25 04:17:23;;;;;;;;;;;;;;;;;;;;;
2022/03/25 04:20:45;;;;;;;50.90;23.50;;;8.30;99.90;;;;;;4682563;30;20049;-89
2022/03/25 04:35:52;;;;;;;53.80;26.08;;;8.10;99.90;;;;;;4752881;30;20525;-89
2022/03/25 04:39:08;;;;;;;54.80;25.50;;;8.10;99.90;;;;;;4737992;30;20465;-89
2022/03/25 04:50:53;;;;;;;55.08;23.15;;;8.00;99.90;;;;;;4706945;30;19926;-89
2022/03/25 05:01:26;;;;;;;60.42;26.02;;;7.90;99.90;;;;;;4736413;30;20045;-89
2022/03/25 05:04:24;;;;;;;59.55;28.20;;;7.90;99.90;;;;;;4721326;30;20051;-90
2022/03/25 05:07:30;;;;;;;62.45;29.90;;;7.90;99.90;;;;;;4725920;30;20060;-91
2022/03/25 05:10:25;;;;;;;62.90;26.80;;;7.90;99.90;;;;;;4728275;30;20495;-89
2022/03/25 05:13:01;;;;;;;62.25;26.83;;;7.80;99.90;;;;;;4722133;30;20523;-89
2022/03/25 05:16:06;;;;;;;58.95;27.67;;;7.80;99.90;;;;;;4734266;30;20108;-91
2022/03/25 05:18:52;;;;;;;62.35;28.30;;;7.80;99.90;;;;;;4753670;30;20052;-90
2022/03/25 05:21:23;;;;;;;57.67;25.30;;;7.80;99.90;;;;;;4753518;30;20769;-89
2022/03/25 05:23:53;;;;;;;61.80;27.17;;;7.70;99.90;;;;;;4752892;30;20098;-89
2022/03/25 05:26:20;;;;;;;57.72;28.40;;;7.70;99.90;;;;;;4720791;30;20053;-88
2022/03/25 05:28:49;;;;;;;61.38;27.23;;;7.70;99.90;;;;;;4719848;30;20471;-89
2022/03/25 05:31:16;;;;;;;62.17;26.95;;;7.70;99.90;;;;;;4734561;30;20075;-89
2022/03/25 05:33:44;;;;;;;58.55;26.60;;;7.60;99.90;;;;;;4731466;30;20573;-88
2022/03/25 05:36:11;;;;;;;60.13;26.48;;;7.70;99.90;;;;;;4734890;30;20055;-88
2022/03/25 05:38:39;;;;;;;57.15;25.70;;;7.60;99.90;;;;;;4720621;30;20450;-88
2022/03/25 05:41:07;;;;;;;56.88;26.33;;;7.60;99.90;;;;;;4705245;30;20132;-88
2022/03/25 05:43:34;;;;;;;58.20;27.77;;;7.60;99.90;;;;;;4720495;30;20102;-89
2022/03/25 05:46:03;;;;;;;58.03;27.30;;;7.60;99.90;;;;;;4734865;30;20216;-88
2022/03/25 05:48:30;;;;;;;55.08;26.60;;;7.60;99.90;;;;;;4706485;30;20155;-87
2022/03/25 05:50:57;;;;;;;62.72;28.00;;;7.60;99.90;;;;;;4734568;30;20083;-88
2022/03/25 05:53:44;;;;;;;65.53;30.38;;;7.60;99.90;;;;;;4720491;30;20087;-89
2022/03/25 05:56:13;;;;;;;64.38;27.45;;;7.60;99.90;;;;;;4735975;30;20128;-90
2022/03/25 05:58:40;;;;;;;59.25;27.85;;;7.50;99.90;;;;;;4709291;30;20067;-90
2022/03/25 06:01:07;;;;;;;60.30;27.05;;;7.50;99.90;;;;;;4720203;30;20058;-91
2022/03/25 06:03:36;;;;;;;59.85;27.05;;;7.50;99.90;;;;;;4721132;30;20048;-90
2022/03/25 06:06:05;;;;;;;59.33;27.08;;;7.50;99.90;;;;;;4720313;30;20059;-90
2022/03/25 06:08:33;;;;;;;61.10;27.80;;;7.60;99.90;;;;;;4720426;30;20045;-90
2022/03/25 06:11:00;;;;;;;60.30;27.55;;;7.60;99.90;;;;;;4719966;30;20060;-90
2022/03/25 06:13:28;;;;;;;50.90;25.45;;;7.50;99.90;;;;;;4720921;30;20056;-91
2022/03/25 06:15:56;;;;;;;55.90;26.95;;;7.60;99.90;;;;;;4739563;30;20126;-90
2022/03/25 06:18:23;;;;;;;59.13;26.70;;;7.60;99.90;;;;;;4720440;30;20467;-89
2022/03/25 06:20:50;;;;;;;54.70;26.88;;;7.60;99.90;;;;;;4719895;30;20401;-90
2022/03/25 06:23:17;;;;;;;58.63;27.35;;;7.60;99.90;;;;;;4720109;30;20057;-92
2022/03/25 06:25:47;;;;;;;52.28;25.63;;;7.60;99.90;;;;;;4720949;30;20045;-91
2022/03/25 06:28:22;;;;;;;53.30;25.52;;;7.60;99.90;;;;;;4719840;30;20060;-92
2022/03/25 06:30:50;;;;;;;60.92;26.75;;;7.60;99.90;;;;;;4719687;30;20065;-90
2022/03/25 06:33:23;;;;;;;50.25;24.30;;;7.60;99.90;;;;;;4719983;30;20057;-89
2022/03/25 06:35:53;;;;;;;51.15;25.42;;;7.60;99.90;;;;;;4735726;30;20053;-89
2022/03/25 06:38:21;;;;;;;48.20;24.45;;;7.60;99.90;;;;;;4720976;30;20048;-90
2022/03/25 06:40:52;;;;;;;47.95;24.15;;;7.60;99.90;;;;;;4719876;30;20562;-91
2022/03/25 06:43:19;;;;;;;60.10;26.20;;;7.60;99.90;;;;;;4720496;30;20127;-90
2022/03/25 06:45:47;;;;;;;50.72;22.67;;;7.60;99.90;;;;;;4735777;30;20045;-92
2022/03/25 06:48:17;;;;;;;54.78;25.02;;;7.60;99.90;;;;;;4735629;30;20143;-90
2022/03/25 06:50:44;;;;;;;46.35;24.50;;;7.60;99.90;;;;;;4720305;30;20052;-89
2022/03/25 06:53:11;;;;;;;52.40;22.83;;;7.60;99.90;;;;;;4720167;30;20076;-91
2022/03/25 06:55:40;;;;;;;57.03;24.02;;;7.60;99.90;;;;;;4714576;30;20111;-92
2022/03/25 06:58:09;;;;;;;67.20;28.45;;;7.60;99.90;;;;;;4709226;30;20045;-89
2022/03/25 07:00:37;;;;;;;59.20;25.88;;;7.60;99.90;;;;;;4709153;30;20088;-90
2022/03/25 07:03:08;;;;;;;71.28;29.67;;;7.50;99.90;;;;;;4711705;30;20059;-92
2022/03/25 07:05:37;;;;;;;54.58;26.75;;;7.50;99.90;;;;;;4708866;30;20052;-90
2022/03/25 07:08:04;;;;;;;66.50;29.80;;;7.50;99.90;;;;;;4708632;30;20128;-90
2022/03/25 07:10:32;;;;;;;56.38;26.67;;;7.50;99.90;;;;;;4722717;30;20185;-89
2022/03/25 07:13:02;;;;;;;72.97;30.40;;;7.60;99.90;;;;;;4722617;30;20095;-88
2022/03/25 07:15:30;;;;;;;70.13;29.98;;;7.60;99.90;;;;;;4722570;30;20151;-90
2022/03/25 07:17:57;;;;;;;72.30;31.48;;;7.70;99.90;;;;;;4738327;30;20576;-91
2022/03/25 07:20:27;;;;;;;76.05;32.58;;;7.70;99.90;;;;;;4738080;30;20048;-91
2022/03/25 07:22:54;;;;;;;69.82;30.55;;;7.70;99.90;;;;;;4722383;30;20052;-90
2022/03/25 07:25:22;;;;;;;74.90;29.73;;;7.70;99.90;;;;;;4721983;30;20139;-89
2022/03/25 07:27:50;;;;;;;67.30;27.90;;;7.80;99.90;;;;;;4722867;30;20052;-90
2022/03/25 07:30:18;;;;;;;61.03;27.80;;;7.80;99.90;;;;;;4721968;30;20052;-90
2022/03/25 07:32:46;;;;;;;58.42;27.33;;;7.80;99.90;;;;;;4708229;30;20152;-90
2022/03/25 07:35:13;;;;;;;51.17;24.63;;;7.80;99.90;;;;;;4738093;30;20048;-90
2022/03/25 07:37:42;;;;;;;63.72;29.05;;;7.90;99.90;;;;;;4722153;30;20053;-91
2022/03/25 07:40:12;;;;;;;55.38;22.98;;;8.00;99.90;;;;;;4708039;30;20059;-91
2022/03/25 07:42:41;;;;;;;74.68;32.72;;;8.10;99.90;;;;;;4722149;30;20097;-92
2022/03/25 07:45:10;;;;;;;59.65;29.85;;;8.20;99.90;;;;;;4722179;30;20059;-91
2022/03/25 07:47:45;;;;;;;69.18;32.08;;;8.20;99.90;;;;;;4722153;30;20056;-91
2022/03/25 07:50:18;;;;;;;57.92;26.25;;;8.30;99.90;;;;;;4722293;30;20053;-92
2022/03/25 07:52:46;;;;;;;73.90;31.60;;;8.40;99.90;;;;;;4707752;30;20049;-90
2022/03/25 07:55:17;;;;;;;71.38;30.77;;;8.40;99.90;;;;;;4721899;30;20052;-91
2022/03/25 07:57:46;;;;;;;71.07;30.73;;;8.40;99.90;;;;;;4708664;30;20135;-92
2022/03/25 08:00:13;;;;;;;76.55;31.70;;;8.50;99.90;;;;;;4737394;30;20040;-90
2022/03/25 08:02:42;;;;;;;77.18;32.75;;;8.60;99.90;;;;;;4706712;30;20110;-92
2022/03/25 08:05:11;;;;;;;73.05;30.95;;;8.60;99.90;;;;;;4737325;30;20482;-90
2022/03/25 08:07:49;;;;;;;70.35;31.83;;;8.60;99.90;;;;;;4721868;30;20087;-92
2022/03/25 08:10:19;;;;;;;67.28;31.23;;;8.70;99.90;;;;;;4721490;30;20144;-92
2022/03/25 08:12:46;;;;;;;77.97;36.03;;;8.70;99.90;;;;;;4737751;30;20052;-91
2022/03/25 08:15:14;;;;;;;61.67;32.45;;;8.70;99.90;;;;;;4737684;30;20053;-90
2022/03/25 08:17:55;;;;;;;71.38;30.52;;;8.70;99.90;;;;;;4721533;30;20056;-91
2022/03/25 08:20:24;;;;;;;63.88;29.27;;;8.80;99.90;;;;;;4707592;30;20057;-91
2022/03/25 08:22:53;;;;;;;71.60;31.08;;;8.80;99.90;;;;;;4721786;30;20045;-92
2022/03/25 08:28:08;;;;;;;66.78;29.80;;;8.90;99.90;;;;;;4721908;30;20515;-91
2022/03/25 08:30:35;;;;;;;66.07;29.98;;;8.90;99.90;;;;;;4721183;30;20048;-92
2022/03/25 08:33:04;;;;;;;74.72;31.73;;;9.00;99.90;;;;;;4707288;30;20052;-90
2022/03/25 08:35:33;;;;;;;64.28;29.85;;;9.00;99.90;;;;;;4707417;30;20403;-90
2022/03/25 08:38:03;;;;;;;60.78;27.25;;;9.10;99.90;;;;;;4721230;30;20055;-92
2022/03/25 08:40:34;;;;;;;67.15;32.53;;;9.20;99.90;;;;;;4721924;30;20057;-90
2022/03/25 08:43:12;;;;;;;65.57;28.50;;;9.20;99.90;;;;;;4708759;30;20138;-91
2022/03/25 08:45:40;;;;;;;68.22;32.20;;;9.30;99.90;;;;;;4721420;30;20080;-90
2022/03/25 08:48:07;;;;;;;65.13;27.70;;;9.30;99.90;;;;;;4721538;30;20075;-91
2022/03/25 08:50:34;;;;;;;59.33;26.00;;;9.20;99.90;;;;;;4706318;30;20106;-91
2022/03/25 08:53:04;;;;;;;61.78;27.50;;;9.30;99.90;;;;;;4721193;30;20053;-92
2022/03/25 08:55:34;;;;;;;61.45;27.05;;;9.30;99.90;;;;;;4706964;30;20056;-92
2022/03/25 08:58:05;;;;;;;57.25;27.65;;;9.30;99.90;;;;;;4736589;30;20131;-90
2022/03/25 09:00:36;;;;;;;56.47;25.70;;;9.50;99.90;;;;;;4720536;30;20053;-92
2022/03/25 09:03:03;;;;;;;61.60;26.60;;;9.60;99.90;;;;;;4706859;30;20057;-92
2022/03/25 09:05:31;;;;;;;62.40;28.40;;;9.70;99.90;;;;;;4707198;30;20076;-89
2022/03/25 09:07:59;;;;;;;63.00;28.10;;;9.80;99.90;;;;;;4736983;30;20059;-90
2022/03/25 09:10:27;;;;;;;56.88;28.40;;;9.70;99.90;;;;;;4706963;30;20057;-90
2022/03/25 09:12:54;;;;;;;54.88;25.40;;;9.70;99.90;;;;;;4721317;30;20045;-91
2022/03/25 09:15:24;;;;;;;59.10;26.67;;;9.80;78.10;;;;;;4720002;30;20052;-91
2022/03/25 09:17:51;;;;;;;68.25;28.33;;;9.70;75.00;;;;;;4721528;30;20052;-90
2022/03/25 09:20:19;;;;;;;62.00;29.20;;;9.80;71.40;;;;;;4706233;30;20109;-91
2022/03/25 09:22:46;;;;;;;60.05;24.95;;;9.80;44.90;;;;;;4720871;30;20051;-90
2022/03/25 09:25:14;;;;;;;62.53;27.88;;;9.90;49.50;;;;;;4720859;30;20056;-90
2022/03/25 09:27:41;;;;;;;73.65;29.08;;;10.00;6.00;;;;;;4706629;30;20456;-90
2022/03/25 09:30:09;;;;;;;64.97;26.98;;;10.20;1.00;;;;;;4720313;30;20057;-91
2022/03/25 09:32:56;;;;;;;64.78;26.17;;;10.10;1.00;;;;;;4711481;30;20048;-91
2022/03/25 09:35:26;;;;;;;61.53;24.95;;;10.10;1.00;;;;;;4706485;30;20168;-92
2022/03/25 09:37:56;;;;;;;51.38;25.38;;;10.10;2.60;;;;;;4706615;30;20187;-91
2022/03/25 09:40:26;;;;;;;60.70;25.88;;;10.20;1.00;;;;;;4705860;30;20492;-91
2022/03/25 09:42:55;;;;;;;64.15;26.83;;;10.10;1.00;;;;;;4706315;30;20059;-90
2022/03/25 09:45:26;;;;;;;55.55;24.73;;;10.40;1.00;;;;;;4736242;30;20044;-91
2022/03/25 09:47:56;;;;;;;49.78;22.58;;;10.40;1.00;;;;;;4720530;30;20056;-92
2022/03/25 09:50:28;;;;;;;51.13;24.08;;;10.30;1.00;;;;;;4705983;30;20117;-91
2022/03/25 09:52:55;;;;;;;48.90;24.00;;;10.40;1.00;;;;;;4720203;30;20063;-92
2022/03/25 09:55:46;;;;;;;49.60;21.95;;;10.40;1.00;;;;;;4723334;30;20533;-92
2022/03/25 09:58:19;;;;;;;53.65;23.60;;;10.40;1.00;;;;;;4720096;30;20053;-90
2022/03/25 10:00:51;;;;;;;55.25;24.65;;;10.60;1.00;;;;;;4719791;30;20059;-91
2022/03/25 10:03:41;;;;;;;50.72;23.45;;;10.60;1.00;;;;;;4720112;30;20048;-92
2022/03/25 10:06:14;;;;;;;47.45;23.88;;;10.60;1.00;;;;;;4720211;30;20086;-90
2022/03/25 10:08:45;;;;;;;57.03;23.58;;;10.70;1.00;;;;;;4735776;30;20056;-90
2022/03/25 10:11:27;;;;;;;43.10;21.52;;;10.80;1.00;;;;;;4734635;30;20052;-91
2022/03/25 10:14:23;;;;;;;54.33;23.90;;;10.70;1.00;;;;;;4735021;30;20056;-90
2022/03/25 10:16:53;;;;;;;52.65;23.00;;;11.00;1.00;;;;;;4734702;30;20108;-90
2022/03/25 10:19:22;;;;;;;55.85;22.77;;;11.10;1.00;;;;;;4719646;30;20527;-90
2022/03/25 10:22:00;;;;;;;52.30;25.58;;;11.10;1.00;;;;;;4720203;30;20499;-92
2022/03/25 10:24:48;;;;;;;55.00;23.33;;;11.10;1.00;;;;;;4735708;30;20049;-88
2022/03/25 10:27:24;;;;;;;53.00;23.95;;;11.20;1.00;;;;;;4719451;30;20516;-90
2022/03/25 10:29:54;;;;;;;57.38;26.75;;;11.30;1.00;;;;;;4719646;30;20431;-92
2022/03/25 10:32:27;;;;;;;63.92;24.88;;;11.30;1.00;;;;;;4720681;30;20057;-90
2022/03/25 10:35:14;;;;;;;50.78;22.52;;;11.30;1.00;;;;;;4719930;30;20234;-90
2022/03/25 10:37:57;;;;;;;64.50;25.25;;;11.40;1.00;;;;;;4734440;30;20096;-92
2022/03/25 10:40:26;;;;;;;;;;;11.50;1.00;;;;;;4735917;30;20048;-91
2022/03/25 10:43:05;;;;;;;51.90;22.38;;;11.60;1.00;;;;;;4734908;30;19926;-90
2022/03/25 10:45:32;;;;;;;64.00;24.50;;;11.60;1.00;;;;;;4719644;30;20488;-89
2022/03/25 10:48:17;;;;;;;52.38;22.63;;;11.60;1.00;;;;;;4719926;30;20052;-89
2022/03/25 10:51:05;;;;;;;47.33;23.52;;;11.70;1.00;;;;;;4719235;30;20057;-90
2022/03/25 10:53:34;;;;;;;52.05;22.67;;;11.80;1.00;;;;;;4719689;30;20099;-90
2022/03/25 10:56:06;;;;;;;47.65;20.35;;;11.80;1.00;;;;;;4719271;30;20083;-90
2022/03/25 10:58:35;;;;;;;44.65;21.65;;;11.80;1.00;;;;;;4719754;30;20056;-91
2022/03/25 11:01:03;;;;;;;45.25;19.85;;;12.00;1.00;;;;;;4719397;30;20479;-90
2022/03/25 11:03:36;;;;;;;47.40;21.48;;;12.00;1.00;;;;;;4705632;30;20116;-93
2022/03/25 11:06:08;;;;;;;43.20;19.33;;;12.20;1.00;;;;;;4720392;30;20504;-92
2022/03/25 11:08:36;;;;;;;46.80;20.08;;;12.20;1.00;;;;;;4719633;30;20084;-91
2022/03/25 11:11:03;;;;;;;42.60;21.08;;;12.00;1.00;;;;;;4719942;30;20049;-91
2022/03/25 11:13:31;;;;;;;46.28;21.67;;;12.00;1.00;;;;;;4735510;30;20507;-90
2022/03/25 11:16:02;;;;;;;43.67;19.23;;;12.10;1.00;;;;;;4719590;30;20164;-91
2022/03/25 11:18:29;;;;;;;39.92;18.85;;;12.10;1.00;;;;;;4719341;30;20496;-91
2022/03/25 11:21:10;;;;;;;32.97;15.73;;;12.20;1.00;;;;;;4719315;30;20040;-91
2022/03/25 11:23:54;;;;;;;34.05;14.50;;;12.40;1.00;;;;;;4719510;30;20059;-92
2022/03/25 11:26:46;;;;;;;37.58;15.30;;;12.40;1.00;;;;;;4722146;30;20044;-91
2022/03/25 11:29:30;;;;;;;31.77;15.20;;;12.50;1.00;;;;;;4705895;30;20056;-92
2022/03/25 11:32:14;;;;;;;30.73;14.60;;;12.50;1.00;;;;;;4707117;30;20412;-92
2022/03/25 11:34:54;;;;;;;29.13;14.50;;;12.70;1.00;;;;;;4719159;30;20099;-91
2022/03/25 11:37:22;;;;;;;34.60;13.85;;;12.70;1.00;;;;;;4719805;30;20135;-92
2022/03/25 11:40:14;;;;;;;29.70;14.38;;;12.70;1.00;;;;;;4722139;30;20056;-92
2022/03/25 11:42:55;;;;;;;34.58;15.90;;;12.70;1.00;;;;;;4722416;30;20074;-90
2022/03/25 11:45:37;;;;;;;42.78;18.02;;;12.80;1.00;;;;;;4709690;30;20048;-91
2022/03/25 11:48:19;;;;;;;40.60;16.08;;;12.90;1.00;;;;;;4723046;30;20098;-92
2022/03/25 11:50:55;;;;;;;30.10;14.07;;;13.00;1.00;;;;;;4726708;30;20064;-91
2022/03/25 11:53:36;;;;;;;20.38;8.82;;;13.10;1.00;;;;;;4711254;30;20478;-92
2022/03/25 11:56:52;;;;;;;29.55;14.50;;;13.10;1.00;;;;;;4710750;30;20083;-92
2022/03/25 11:59:48;;;;;;;31.10;15.05;;;13.30;1.00;;;;;;4723018;30;20053;-92
2022/03/25 12:02:37;;;;;;;31.65;15.52;;;13.40;1.00;;;;;;4722269;30;20074;-93
2022/03/25 12:05:35;;;;;;;31.10;15.13;;;13.50;1.00;;;;;;4707863;30;20076;-91
2022/03/25 12:08:32;;;;;;;28.02;14.48;;;13.40;1.00;;;;;;4722434;30;20048;-92
2022/03/25 12:11:11;;;;;;;25.90;12.40;;;13.40;1.00;;;;;;4711060;30;20063;-91
2022/03/25 12:13:59;;;;;;;25.83;14.32;;;13.50;1.00;;;;;;4722744;30;20114;-92
2022/03/25 12:16:48;;;;;;;30.05;13.55;;;13.50;1.00;;;;;;4737820;30;20040;-91
2022/03/25 12:19:29;;;;;;;21.48;10.38;;;13.60;1.00;;;;;;4722533;30;20104;-90
2022/03/25 12:22:03;;;;;;;31.65;12.55;;;13.70;1.00;;;;;;4722280;30;20102;-91
2022/03/25 12:24:34;;;;;;;21.00;10.45;;;13.80;1.00;;;;;;4721592;30;20128;-91
2022/03/25 12:27:15;;;;;;;26.25;11.98;;;13.80;1.00;;;;;;4721705;30;20060;-91
2022/03/25 12:29:51;;;;;;;27.20;12.18;;;13.90;1.00;;;;;;4721670;30;20056;-91
2022/03/25 12:32:25;;;;;;;23.35;12.80;;;13.90;1.00;;;;;;4722142;30;20060;-92
2022/03/25 12:39:12;;;;;;;26.48;13.18;;;14.10;1.00;;;;;;4717804;30;20519;-91
2022/03/25 12:41:48;;;;;;;27.20;13.20;;;14.10;1.00;;;;;;4721765;30;20056;-91
2022/03/25 12:44:28;;;;;;;28.95;13.98;;;14.20;1.00;;;;;;4737195;30;20124;-90
2022/03/25 12:47:00;;;;;;;24.80;13.95;;;14.10;1.00;;;;;;4737468;30;20056;-92
2022/03/25 12:49:29;;;;;;;23.10;11.73;;;14.10;1.00;;;;;;4721349;30;20496;-91
2022/03/25 12:52:05;;;;;;;29.20;13.15;;;14.20;1.00;;;;;;4707434;30;20151;-93
2022/03/25 12:54:38;;;;;;;32.45;15.05;;;14.10;1.00;;;;;;4721344;30;20044;-91
2022/03/25 12:57:12;;;;;;;27.08;14.02;;;14.20;1.00;;;;;;4722139;30;20462;-92
2022/03/25 13:00:34;;;;;;;12.40;7.32;;;14.30;1.00;;;;;;4708085;30;20068;-92
2022/03/25 13:03:33;;;;;;;27.30;11.07;;;14.30;1.00;;;;;;4713785;30;20057;-92
2022/03/25 13:06:56;;;;;;;;;;;;;;;;;;;;;
2022/03/25 13:10:05;;;;;;;21.13;10.63;;;14.50;1.00;;;;;;4718773;30;20052;-92
2022/03/25 13:13:46;;;;;;;14.02;7.13;;;14.60;1.00;;;;;;4708781;30;20149;-92
2022/03/25 13:17:11;;;;;;;15.50;7.85;;;14.60;1.00;;;;;;4733567;30;20052;-91
2022/03/25 13:20:58;;;;;;;;;;;;;;;;;;;;;
2022/03/25 13:23:38;;;;;;;16.15;7.95;;;14.70;1.00;;;;;;4722099;30;20048;-91
2022/03/25 13:26:24;;;;;;;18.58;7.80;;;14.70;1.00;;;;;;4727090;30;20104;-91
2022/03/25 13:34:19;;;;;;;15.23;7.43;;;14.70;1.00;;;;;;4691843;30;20049;-91
2022/03/25 13:36:54;;;;;;;18.08;6.88;;;14.40;1.00;;;;;;4698755;30;20501;-90
2022/03/25 13:39:21;;;;;;;22.35;7.32;;;14.70;1.00;;;;;;4685243;30;20070;-91
2022/03/25 13:41:48;;;;;;;21.85;8.85;;;14.80;1.00;;;;;;4682353;30;20136;-89
2022/03/25 13:44:24;;;;;;;25.10;9.35;;;14.60;1.00;;;;;;4668050;30;20054;-89
2022/03/25 13:46:55;;;;;;;17.92;10.73;;;14.60;1.00;;;;;;4665711;30;20144;-91
2022/03/25 13:49:25;;;;;;;27.60;12.00;;;14.60;1.00;;;;;;4703971;30;20059;-93
2022/03/25 13:52:06;;;;;;;35.28;15.23;;;14.30;1.00;;;;;;4717887;30;20057;-89
2022/03/25 13:54:33;;;;;;;24.13;12.90;;;14.40;1.00;;;;;;4719276;30;20147;-89
2022/03/25 13:57:04;;;;;;;24.80;12.27;;;14.50;1.00;;;;;;4705137;30;20056;-88
2022/03/25 13:59:41;;;;;;;22.25;11.20;;;14.60;1.00;;;;;;4706935;30;20057;-90
2022/03/25 14:02:31;;;;;;;27.40;13.07;;;14.70;1.00;;;;;;4721006;30;20136;-90
2022/03/25 14:05:14;;;;;;;32.72;15.43;;;15.10;1.00;;;;;;4736087;30;20132;-91
2022/03/25 14:07:42;;;;;;;26.67;14.10;;;15.20;1.00;;;;;;4735568;30;20060;-88
2022/03/25 14:10:15;;;;;;;30.58;13.75;;;15.20;1.00;;;;;;4735157;30;20060;-88
2022/03/25 14:13:14;;;;;;;27.67;13.07;;;15.20;1.00;;;;;;4736017;30;20056;-90
2022/03/25 14:15:42;;;;;;;24.85;11.98;;;14.90;1.00;;;;;;4705606;30;20095;-88
2022/03/25 14:18:29;;;;;;;24.95;12.30;;;14.80;1.00;;;;;;4735095;30;20500;-89
2022/03/25 14:21:01;;;;;;;25.35;13.40;;;14.70;1.00;;;;;;4734836;30;20041;-89
2022/03/25 14:23:28;;;;;;;23.85;12.35;;;14.90;1.00;;;;;;4735154;30;20055;-88
2022/03/25 14:25:55;;;;;;;29.10;12.82;;;14.90;1.00;;;;;;4735153;30;20071;-87
2022/03/25 14:28:26;;;;;;;28.58;15.27;;;14.80;1.00;;;;;;4719390;30;20504;-88
2022/03/25 14:30:53;;;;;;;31.33;13.75;;;14.90;1.00;;;;;;4734910;30;20068;-87
2022/03/25 14:33:20;;;;;;;31.05;14.35;;;14.90;1.00;;;;;;4719653;30;20519;-90
2022/03/25 14:35:48;;;;;;;30.63;15.45;;;15.20;1.00;;;;;;4720305;30;20053;-90
2022/03/25 14:38:16;;;;;;;34.65;18.83;;;15.10;1.00;;;;;;4720004;30;20492;-87
2022/03/25 14:40:43;;;;;;;41.50;19.17;;;15.30;1.00;;;;;;4735042;30;20047;-86
2022/03/25 14:43:10;;;;;;;32.80;16.20;;;15.30;1.00;;;;;;4735322;30;20049;-88
2022/03/25 14:45:40;;;;;;;40.97;18.00;;;15.40;1.00;;;;;;4719792;30;20048;-92
2022/03/25 14:48:07;;;;;;;31.45;17.92;;;15.30;1.00;;;;;;4719740;30;20045;-89
2022/03/25 14:50:34;;;;;;;34.05;19.10;;;15.50;1.00;;;;;;4704843;30;20064;-90
2022/03/25 14:53:02;;;;;;;34.80;17.80;;;15.30;1.00;;;;;;4724472;30;20049;-94
2022/03/25 14:55:30;;;;;;;31.40;16.25;;;15.80;1.00;;;;;;4719922;30;20056;-90
2022/03/25 14:57:57;;;;;;;34.10;18.25;;;15.90;1.00;;;;;;4705148;30;20049;-87
2022/03/25 15:00:31;;;;;;;42.22;21.25;;;15.70;1.00;;;;;;4719105;30;20056;-89
2022/03/25 15:03:05;;;;;;;40.55;18.60;;;15.20;1.00;;;;;;4735479;30;20103;-89
2022/03/25 15:05:32;;;;;;;34.05;20.13;;;15.50;1.00;;;;;;4719690;30;20495;-90
2022/03/25 15:07:59;;;;;;;40.88;19.63;;;15.80;1.00;;;;;;4716098;30;20057;-89
2022/03/25 15:10:26;;;;;;;23.80;11.82;;;15.90;1.00;;;;;;4717533;30;20064;-89
2022/03/25 15:12:53;;;;;;;31.75;17.17;;;16.40;1.00;;;;;;4720011;30;20053;-89
2022/03/25 15:15:21;;;;;;;36.58;19.73;;;16.80;1.00;;;;;;4720279;30;20057;-89
2022/03/25 15:17:49;;;;;;;31.15;16.75;;;16.20;1.00;;;;;;4719977;30;20057;-91
2022/03/25 15:20:17;;;;;;;35.17;17.75;;;16.40;1.00;;;;;;4731083;30;20060;-88
2022/03/25 15:22:44;;;;;;;33.67;17.13;;;16.50;1.00;;;;;;4722460;30;20041;-91
2022/03/25 15:25:12;;;;;;;36.92;19.98;;;16.80;1.00;;;;;;4722884;30;20051;-89
2022/03/25 15:27:39;;;;;;;29.80;17.45;;;16.50;1.00;;;;;;4722720;30;20140;-89
2022/03/25 15:35:57;;;;;;;32.67;16.70;;;15.80;1.00;;;;;;4738157;30;20067;-90
2022/03/25 15:38:44;;;;;;;32.83;17.85;;;16.30;1.00;;;;;;4722292;30;20478;-89
2022/03/25 15:41:11;;;;;;;22.13;12.55;;;15.60;1.00;;;;;;4722198;30;20512;-89
2022/03/25 15:43:38;;;;;;;26.40;14.02;;;16.30;1.00;;;;;;4722757;30;20055;-90
2022/03/25 15:46:14;;;;;;;27.50;14.65;;;16.30;1.00;;;;;;4723901;30;20048;-89
2022/03/25 15:48:41;;;;;;;38.65;17.60;;;16.00;1.00;;;;;;4722622;30;20044;-90
2022/03/25 15:51:11;;;;;;;28.92;14.15;;;15.40;1.00;;;;;;4721553;30;20049;-90
2022/03/25 15:53:39;;;;;;;19.55;10.75;;;15.40;1.00;;;;;;4738094;30;20049;-89
2022/03/25 15:56:07;;;;;;;28.42;15.85;;;16.00;1.00;;;;;;4722071;30;20144;-90
2022/03/25 15:58:37;;;;;;;23.60;13.07;;;15.50;1.00;;;;;;4722637;30;20052;-91
2022/03/25 16:01:24;;;;;;;26.02;13.48;;;15.80;1.00;;;;;;4713824;30;20068;-89
2022/03/25 16:03:52;;;;;;;31.23;15.50;;;15.90;1.00;;;;;;4722836;30;20454;-89
2022/03/25 16:06:31;;;;;;;26.30;15.30;;;15.30;1.00;;;;;;4738079;30;20412;-90
2022/03/25 16:09:07;;;;;;;17.70;10.65;;;15.40;1.00;;;;;;4722108;30;20424;-89
2022/03/25 16:11:56;;;;;;;29.42;14.45;;;15.70;1.00;;;;;;4738802;30;20049;-90
2022/03/25 16:14:32;;;;;;;22.70;12.07;;;15.70;1.00;;;;;;4722232;30;20045;-91
2022/03/25 16:17:08;;;;;;;23.38;13.18;;;15.70;1.00;;;;;;4722119;30;20077;-90
2022/03/25 16:19:36;;;;;;;23.40;10.82;;;15.20;1.00;;;;;;4737827;30;20079;-91
2022/03/25 16:22:17;;;;;;;22.70;11.10;;;15.80;1.00;;;;;;4737349;30;20385;-91
2022/03/25 16:24:56;;;;;;;24.40;13.00;;;16.20;1.00;;;;;;4718651;30;20500;-91
2022/03/25 16:27:24;;;;;;;22.25;12.40;;;16.00;1.00;;;;;;4721914;30;20052;-89
2022/03/25 16:30:02;;;;;;;27.00;13.48;;;16.20;1.00;;;;;;4721165;30;20067;-89
2022/03/25 16:32:33;;;;;;;29.08;15.75;;;15.40;1.00;;;;;;4721493;30;20048;-88
2022/03/25 16:35:04;;;;;;;24.33;12.80;;;15.40;1.00;;;;;;4737212;30;20044;-89
2022/03/25 16:37:36;;;;;;;18.55;11.48;;;15.40;1.00;;;;;;4737573;30;20063;-91
2022/03/25 16:40:07;;;;;;;;;;;15.50;1.00;;;;;;4737525;30;20057;-89
2022/03/25 16:42:41;;;;;;;15.85;9.18;;;15.40;1.00;;;;;;4737129;30;19977;-90
2022/03/25 16:45:36;;;;;;;15.80;8.25;;;15.50;1.00;;;;;;4721072;30;20396;-88
2022/03/25 16:48:42;;;;;;;21.50;10.00;;;15.70;1.00;;;;;;4706581;30;20053;-92
2022/03/25 16:51:18;;;;;;;18.45;10.05;;;15.00;1.00;;;;;;4722254;30;20123;-89
2022/03/25 16:53:49;;;;;;;20.75;10.07;;;14.70;1.00;;;;;;4721984;30;20114;-89
2022/03/25 16:56:56;;;;;;;13.13;7.80;;;14.80;1.00;;;;;;4737607;30;20056;-94
2022/03/25 17:02:50;;;;;;;29.52;12.27;;;15.40;6.70;;;;;;4776399;24;20051;-90
2022/03/25 17:17:08;;;;;;;15.70;8.05;;;15.40;1.00;;;;;;4787583;24;20060;-90
2022/03/25 17:19:58;;;;;;;19.00;8.52;;;15.00;1.00;;;;;;4738132;30;20052;-89
2022/03/25 17:22:55;;;;;;;15.05;8.63;;;14.80;1.00;;;;;;4736781;30;20047;-90